createdAt,value
2018-05-02T00:01:00.568Z,96648.56
2018-05-02T00:03:26.416Z,96641.99
2018-05-02T00:05:52.289Z,96657.95
2018-05-02T00:08:18.225Z,96656.73
2018-05-02T00:10:44.085Z,96664.00
2018-05-02T00:13:09.964Z,96668.17
2018-05-02T00:15:35.824Z,96663.95
2018-05-02T00:18:01.791Z,96667.92
2018-05-02T00:20:27.599Z,96656.56
2018-05-02T00:22:53.503Z,96661.72
2018-05-02T00:25:19.340Z,96660.63
2018-05-02T00:27:45.227Z,96662.97
2018-05-02T00:30:11.092Z,96649.39
2018-05-02T00:32:36.968Z,96642.98
2018-05-02T00:35:02.867Z,96637.03
2018-05-02T00:37:28.740Z,96641.78
2018-05-02T00:39:54.611Z,96643.70
2018-05-02T00:42:20.475Z,96639.58
2018-05-02T00:44:46.330Z,96640.70
2018-05-02T00:47:12.176Z,96639.14
2018-05-02T00:49:38.046Z,96643.19
2018-05-02T00:52:03.892Z,96644.48
2018-05-02T00:54:29.780Z,96651.25
2018-05-02T00:56:55.667Z,96652.20
2018-05-02T00:59:21.530Z,96657.68
2018-05-02T01:01:47.384Z,96656.30
2018-05-02T01:04:13.285Z,96659.34
2018-05-02T01:06:39.174Z,96660.17
2018-05-02T01:09:05.088Z,96659.72
2018-05-02T01:11:30.972Z,96662.98
2018-05-02T01:13:56.821Z,96652.70
2018-05-02T01:16:22.692Z,96660.17
2018-05-02T01:18:48.564Z,96667.92
2018-05-02T01:21:14.437Z,96662.13
2018-05-02T01:23:40.330Z,96667.38
2018-05-02T01:26:06.177Z,96668.70
2018-05-02T01:28:32.013Z,96663.14
2018-05-02T01:30:57.857Z,96655.73
2018-05-02T01:33:23.715Z,96658.15
2018-05-02T01:35:49.589Z,96654.77
2018-05-02T01:38:15.453Z,96659.29
2018-05-02T01:40:41.318Z,96658.58
2018-05-02T01:43:07.153Z,96657.47
2018-05-02T01:45:33.032Z,96653.73
2018-05-02T01:47:58.872Z,96657.76
2018-05-02T01:50:24.704Z,96653.23
2018-05-02T01:52:50.544Z,96656.34
2018-05-02T01:55:16.348Z,96657.80
2018-05-02T01:57:42.229Z,96652.52
2018-05-02T02:00:08.057Z,96637.41
2018-05-02T02:02:33.902Z,96648.33
2018-05-02T02:04:59.759Z,96648.69
2018-05-02T02:07:25.640Z,96657.80
2018-05-02T02:09:51.497Z,96656.32
2018-05-02T02:12:17.346Z,96654.91
2018-05-02T02:14:43.233Z,96653.19
2018-05-02T02:17:09.081Z,96648.58
2018-05-02T02:19:34.909Z,96653.95
2018-05-02T02:22:00.764Z,96646.90
2018-05-02T02:24:26.639Z,96649.84
2018-05-02T02:26:52.493Z,96638.58
2018-05-02T02:29:18.373Z,96630.44
2018-05-02T02:31:44.207Z,96633.70
2018-05-02T02:34:10.082Z,96630.74
2018-05-02T02:36:35.952Z,96636.98
2018-05-02T02:39:01.848Z,96629.85
2018-05-02T02:41:27.710Z,96628.01
2018-05-02T02:43:53.559Z,96633.36
2018-05-02T02:46:19.417Z,96627.09
2018-05-02T02:48:45.268Z,96622.75
2018-05-02T02:51:11.126Z,96621.73
2018-05-02T02:53:36.984Z,96619.39
2018-05-02T02:56:02.851Z,96611.61
2018-05-02T02:58:28.713Z,96621.68
2018-05-02T03:00:54.613Z,96612.23
2018-05-02T03:03:20.497Z,96609.83
2018-05-02T03:05:46.369Z,96616.75
2018-05-02T03:08:12.243Z,96612.09
2018-05-02T03:10:38.112Z,96607.43
2018-05-02T03:13:03.988Z,96613.11
2018-05-02T03:15:29.848Z,96608.52
2018-05-02T03:17:55.699Z,96606.22
2018-05-02T03:20:21.542Z,96606.50
2018-05-02T03:22:47.427Z,96600.33
2018-05-02T03:25:13.294Z,96605.66
2018-05-02T03:27:39.177Z,96606.04
2018-05-02T03:30:05.014Z,96605.98
2018-05-02T03:32:30.884Z,96599.13
2018-05-02T03:34:56.754Z,96607.17
2018-05-02T03:37:22.577Z,96612.67
2018-05-02T03:39:48.410Z,96613.02
2018-05-02T03:42:14.269Z,96610.38
2018-05-02T03:44:40.168Z,96610.38
2018-05-02T03:47:06.048Z,96603.94
2018-05-02T03:49:31.895Z,96600.61
2018-05-02T03:51:57.761Z,96598.92
2018-05-02T03:54:23.645Z,96589.77
2018-05-02T03:56:49.472Z,96582.34
2018-05-02T03:59:15.373Z,96586.35
2018-05-02T04:01:53.525Z,96595.59
2018-05-02T04:04:31.892Z,96590.88
2018-05-02T04:07:14.554Z,96589.64
2018-05-02T04:09:40.461Z,96582.34
2018-05-02T04:12:06.381Z,96585.85
2018-05-02T04:14:32.251Z,96586.53
2018-05-02T04:16:58.129Z,96586.76
2018-05-02T04:19:23.998Z,96590.30
2018-05-02T04:21:49.865Z,96591.34
2018-05-02T04:24:15.705Z,96588.63
2018-05-02T04:26:41.572Z,96595.43
2018-05-02T04:29:07.454Z,96587.10
2018-05-02T04:31:33.320Z,96589.39
2018-05-02T04:33:59.180Z,96586.36
2018-05-02T04:36:25.064Z,96585.82
2018-05-02T04:38:50.932Z,96573.98
2018-05-02T04:41:16.868Z,96581.90
2018-05-02T04:43:42.758Z,96578.33
2018-05-02T04:46:08.624Z,96582.36
2018-05-02T04:48:34.490Z,96576.69
2018-05-02T04:51:00.339Z,96573.70
2018-05-02T04:53:26.284Z,96574.28
2018-05-02T04:55:52.141Z,96578.18
2018-05-02T04:58:18.017Z,96564.78
2018-05-02T05:00:43.858Z,96567.16
2018-05-02T05:03:09.724Z,96560.01
2018-05-02T05:05:35.601Z,96552.38
2018-05-02T05:08:01.656Z,96553.80
2018-05-02T05:10:27.521Z,96565.55
2018-05-02T05:12:53.745Z,96563.37
2018-05-02T05:15:19.616Z,96563.48
2018-05-02T05:17:45.466Z,96568.00
2018-05-02T05:20:11.320Z,96570.73
2018-05-02T05:22:37.184Z,96569.23
2018-05-02T05:25:03.077Z,96572.36
2018-05-02T05:27:28.928Z,96576.09
2018-05-02T05:29:54.793Z,96574.94
2018-05-02T05:32:20.684Z,96573.94
2018-05-02T05:34:46.526Z,96574.55
2018-05-02T05:37:12.387Z,96577.81
2018-05-02T05:39:38.252Z,96570.04
2018-05-02T05:42:04.100Z,96575.53
2018-05-02T05:44:29.977Z,96572.45
2018-05-02T05:46:55.883Z,96584.28
2018-05-02T05:49:21.724Z,96590.95
2018-05-02T05:51:47.566Z,96587.42
2018-05-02T05:54:13.576Z,96583.07
2018-05-02T05:56:39.376Z,96580.59
2018-05-02T05:59:05.218Z,96575.80
2018-05-02T06:01:31.172Z,96579.55
2018-05-02T06:03:57.032Z,96580.02
2018-05-02T06:06:23.347Z,96584.19
2018-05-02T06:08:49.225Z,96573.45
2018-05-02T06:11:15.120Z,96569.39
2018-05-02T06:13:41.013Z,96577.41
2018-05-02T06:16:06.957Z,96578.22
2018-05-02T06:18:32.817Z,96572.58
2018-05-02T06:20:58.681Z,96568.96
2018-05-02T06:23:24.530Z,96571.66
2018-05-02T06:25:51.206Z,96575.66
2018-05-02T06:28:17.091Z,96578.48
2018-05-02T06:30:42.953Z,96582.80
2018-05-02T06:33:08.841Z,96586.06
2018-05-02T06:35:34.677Z,96593.61
2018-05-02T06:38:00.573Z,96598.36
2018-05-02T06:40:26.384Z,96589.73
2018-05-02T06:42:52.248Z,96581.53
2018-05-02T06:45:18.101Z,96584.05
2018-05-02T06:47:44.024Z,96581.53
2018-05-02T06:50:09.906Z,96574.02
2018-05-02T06:52:35.756Z,96563.53
2018-05-02T06:55:01.601Z,96569.69
2018-05-02T06:57:27.444Z,96568.06
2018-05-02T06:59:53.325Z,96560.70
2018-05-02T07:02:19.193Z,96553.69
2018-05-02T07:04:45.080Z,96547.45
2018-05-02T07:07:11.030Z,96542.88
2018-05-02T07:09:36.827Z,96543.45
2018-05-02T07:12:02.674Z,96540.23
2018-05-02T07:14:28.513Z,96532.22
2018-05-02T07:16:54.376Z,96531.45
2018-05-02T07:19:20.239Z,96535.17
2018-05-02T07:21:46.100Z,96529.36
2018-05-02T07:24:11.915Z,96521.58
2018-05-02T07:26:37.821Z,96530.80
2018-05-02T07:29:03.678Z,96529.56
2018-05-02T07:31:29.521Z,96529.08
2018-05-02T07:33:55.384Z,96517.22
2018-05-02T07:36:21.222Z,96517.72
2018-05-02T07:38:47.064Z,96515.51
2018-05-02T07:41:12.942Z,96518.30
2018-05-02T07:43:38.821Z,96522.20
2018-05-02T07:46:04.729Z,96523.83
2018-05-02T07:48:30.607Z,96523.38
2018-05-02T07:50:56.486Z,96519.92
2018-05-02T07:53:22.311Z,96527.87
2018-05-02T07:55:48.157Z,96531.17
2018-05-02T07:58:14.039Z,96528.63
2018-05-02T08:00:39.897Z,96531.34
2018-05-02T08:03:05.803Z,96525.38
2018-05-02T08:05:31.648Z,96523.49
2018-05-02T08:07:57.848Z,96520.69
2018-05-02T08:10:23.720Z,96520.80
2018-05-02T08:12:49.601Z,96520.26
2018-05-02T08:15:15.477Z,96521.12
2018-05-02T08:17:41.363Z,96526.94
2018-05-02T08:20:07.261Z,96523.34
2018-05-02T08:22:33.112Z,96508.25
2018-05-02T08:24:58.925Z,96508.98
2018-05-02T08:27:25.096Z,96502.17
2018-05-02T08:29:50.968Z,96497.59
2018-05-02T08:32:16.834Z,96500.20
2018-05-02T08:34:42.705Z,96491.39
2018-05-02T08:37:08.521Z,96494.39
2018-05-02T08:39:34.361Z,96490.03
2018-05-02T08:42:00.222Z,96478.59
2018-05-02T08:44:26.085Z,96473.11
2018-05-02T08:46:51.932Z,96473.92
2018-05-02T08:49:17.808Z,96475.22
2018-05-02T08:51:43.684Z,96478.81
2018-05-02T08:54:09.588Z,96482.20
2018-05-02T08:56:35.524Z,96478.21
2018-05-02T08:59:01.361Z,96473.91
2018-05-02T09:01:27.337Z,96473.80
2018-05-02T09:03:53.199Z,96469.47
2018-05-02T09:06:19.068Z,96462.77
2018-05-02T09:08:44.913Z,96453.98
2018-05-02T09:11:10.760Z,96463.76
2018-05-02T09:13:36.598Z,96461.29
2018-05-02T09:16:02.456Z,96460.04
2018-05-02T09:18:28.295Z,96450.11
2018-05-02T09:20:54.164Z,96453.41
2018-05-02T09:23:20.005Z,96448.46
2018-05-02T09:25:45.901Z,96446.08
2018-05-02T09:28:11.791Z,96435.31
2018-05-02T09:30:37.613Z,96431.41
2018-05-02T09:33:03.442Z,96429.89
2018-05-02T09:35:29.313Z,96431.05
2018-05-02T09:37:55.168Z,96421.89
2018-05-02T09:40:21.025Z,96416.65
2018-05-02T09:42:46.881Z,96414.27
2018-05-02T09:45:12.745Z,96394.73
2018-05-02T09:47:38.600Z,96394.28
2018-05-02T09:50:04.582Z,96392.41
2018-05-02T09:52:30.414Z,96385.22
2018-05-02T09:54:56.260Z,96380.64
2018-05-02T09:57:22.085Z,96389.31
2018-05-02T09:59:47.921Z,96374.31
2018-05-02T10:02:13.760Z,96369.34
2018-05-02T10:04:39.619Z,96368.98
2018-05-02T10:07:05.476Z,96363.59
2018-05-02T10:09:31.346Z,96361.92
2018-05-02T10:11:57.215Z,96357.31
2018-05-02T10:14:23.101Z,96356.66
2018-05-02T10:16:48.986Z,96342.36
2018-05-02T10:19:14.852Z,96340.66
2018-05-02T10:21:40.740Z,96340.61
2018-05-02T10:24:06.589Z,96340.92
2018-05-02T10:26:32.481Z,96331.98
2018-05-02T10:28:58.340Z,96337.82
2018-05-02T10:31:24.211Z,96336.46
2018-05-02T10:33:50.092Z,96333.41
2018-05-02T10:36:15.949Z,96328.77
2018-05-02T10:38:41.831Z,96337.30
2018-05-02T10:41:07.733Z,96320.19
2018-05-02T10:43:33.599Z,96334.28
2018-05-02T10:45:59.525Z,96336.81
2018-05-02T10:48:25.418Z,96329.34
2018-05-02T10:50:51.272Z,96324.78
2018-05-02T10:53:17.153Z,96329.84
2018-05-02T10:55:43.005Z,96325.88
2018-05-02T10:58:08.869Z,96321.50
2018-05-02T11:00:34.750Z,96317.27
2018-05-02T11:03:00.688Z,96311.92
2018-05-02T11:05:26.564Z,96309.22
2018-05-02T11:07:52.457Z,96305.64
2018-05-02T11:10:18.324Z,96303.02
2018-05-02T11:12:44.181Z,96300.02
2018-05-02T11:15:10.053Z,96303.64
2018-05-02T11:17:35.944Z,96303.09
2018-05-02T11:20:01.812Z,96300.44
2018-05-02T11:22:27.783Z,96300.23
2018-05-02T11:24:53.637Z,96298.48
2018-05-02T11:27:19.462Z,96301.19
2018-05-02T11:29:45.300Z,96300.03
2018-05-02T11:32:11.174Z,96303.13
2018-05-02T11:34:37.066Z,96303.09
2018-05-02T11:37:02.915Z,96296.34
2018-05-02T11:39:28.793Z,96286.98
2018-05-02T11:41:54.668Z,96292.06
2018-05-02T11:44:20.513Z,96297.94
2018-05-02T11:46:46.367Z,96292.95
2018-05-02T11:49:12.229Z,96285.84
2018-05-02T11:51:38.096Z,96277.83
2018-05-02T11:54:03.955Z,96286.45
2018-05-02T11:56:29.816Z,96283.18
2018-05-02T11:58:55.685Z,96281.34
2018-05-02T12:01:21.656Z,96288.41
2018-05-02T12:03:47.516Z,96285.84
2018-05-02T12:06:13.372Z,96279.47
2018-05-02T12:08:40.102Z,96269.98
2018-05-02T12:11:05.988Z,96268.33
2018-05-02T12:13:31.860Z,96267.18
2018-05-02T12:15:57.788Z,96270.41
2018-05-02T12:18:23.636Z,96256.05
2018-05-02T12:20:49.461Z,96265.48
2018-05-02T12:23:15.313Z,96266.66
2018-05-02T12:25:41.184Z,96266.47
2018-05-02T12:28:07.042Z,96256.41
2018-05-02T12:30:32.899Z,96257.23
2018-05-02T12:32:58.756Z,96252.97
2018-05-02T12:35:24.628Z,96256.26
2018-05-02T12:37:50.438Z,96253.67
2018-05-02T12:40:16.297Z,96247.96
2018-05-02T12:42:42.194Z,96241.33
2018-05-02T12:45:08.029Z,96240.97
2018-05-02T12:47:33.891Z,96248.91
2018-05-02T12:49:59.721Z,96244.19
2018-05-02T12:52:25.605Z,96242.72
2018-05-02T12:54:51.482Z,96229.59
2018-05-02T12:57:17.352Z,96233.20
2018-05-02T12:59:43.235Z,96233.93
2018-05-02T13:02:09.109Z,96235.05
2018-05-02T13:04:34.985Z,96233.24
2018-05-02T13:07:00.824Z,96226.14
2018-05-02T13:09:26.671Z,96226.95
2018-05-02T13:11:52.517Z,96227.27
2018-05-02T13:14:18.365Z,96227.38
2018-05-02T13:16:44.221Z,96221.09
2018-05-02T13:19:10.073Z,96221.48
2018-05-02T13:21:35.921Z,96219.15
2018-05-02T13:24:01.757Z,96216.98
2018-05-02T13:26:27.644Z,96207.84
2018-05-02T13:28:53.492Z,96210.82
2018-05-02T13:31:19.365Z,96205.63
2018-05-02T13:33:45.212Z,96202.31
2018-05-02T13:36:11.036Z,96195.92
2018-05-02T13:38:36.888Z,96197.05
2018-05-02T13:41:02.773Z,96210.27
2018-05-02T13:43:28.644Z,96199.09
2018-05-02T13:45:54.480Z,96201.10
2018-05-02T13:48:20.325Z,96188.23
2018-05-02T13:50:46.192Z,96187.41
2018-05-02T13:53:12.064Z,96181.73
2018-05-02T13:55:37.937Z,96173.55
2018-05-02T13:58:03.825Z,96175.81
2018-05-02T14:00:30.649Z,96175.34
2018-05-02T14:02:56.524Z,96169.37
2018-05-02T14:05:22.382Z,96160.48
2018-05-02T14:07:48.252Z,96151.05
2018-05-02T14:10:14.121Z,96146.69
2018-05-02T14:12:40.008Z,96152.09
2018-05-02T14:15:05.948Z,96139.21
2018-05-02T14:17:31.867Z,96131.45
2018-05-02T14:19:57.681Z,96140.69
2018-05-02T14:22:23.556Z,96145.70
2018-05-02T14:24:49.487Z,96152.69
2018-05-02T14:27:15.316Z,96152.87
2018-05-02T14:29:41.182Z,96150.40
2018-05-02T14:32:07.033Z,96155.78
2018-05-02T14:34:32.901Z,96154.55
2018-05-02T14:36:58.757Z,96158.72
2018-05-02T14:39:24.695Z,96147.90
2018-05-02T14:41:50.568Z,96142.95
2018-05-02T14:44:16.475Z,96140.31
2018-05-02T14:46:42.337Z,96139.72
2018-05-02T14:49:08.237Z,96132.05
2018-05-02T14:51:34.072Z,96127.75
2018-05-02T14:53:59.889Z,96133.44
2018-05-02T14:56:25.733Z,96123.52
2018-05-02T14:58:51.574Z,96125.84
2018-05-02T15:01:17.458Z,96121.71
2018-05-02T15:03:43.284Z,96121.41
2018-05-02T15:06:09.590Z,96118.50
2018-05-02T15:08:35.698Z,96122.28
2018-05-02T15:11:01.798Z,96124.85
2018-05-02T15:13:27.784Z,96120.47
2018-05-02T15:15:53.655Z,96118.81
2018-05-02T15:18:19.525Z,96119.02
2018-05-02T15:20:45.470Z,96124.88
2018-05-02T15:23:11.325Z,96115.70
2018-05-02T15:25:37.192Z,96118.14
2018-05-02T15:28:03.089Z,96122.20
2018-05-02T15:30:28.944Z,96122.77
2018-05-02T15:32:54.809Z,96119.00
2018-05-02T15:35:20.649Z,96113.41
2018-05-02T15:37:46.521Z,96112.42
2018-05-02T15:40:12.396Z,96112.63
2018-05-02T15:42:38.277Z,96113.73
2018-05-02T15:45:04.176Z,96108.24
2018-05-02T15:47:30.043Z,96113.37
2018-05-02T15:49:55.894Z,96109.20
2018-05-02T15:52:21.797Z,96100.31
2018-05-02T15:54:47.664Z,96100.86
2018-05-02T15:57:13.585Z,96107.44
2018-05-02T15:59:39.453Z,96111.06
2018-05-02T16:02:05.360Z,96104.58
2018-05-02T16:04:31.234Z,96096.86
2018-05-02T16:06:57.099Z,96102.03
2018-05-02T16:09:22.964Z,96099.52
2018-05-02T16:11:48.816Z,96100.66
2018-05-02T16:14:14.687Z,96102.46
2018-05-02T16:16:40.556Z,96091.30
2018-05-02T16:19:06.467Z,96095.32
2018-05-02T16:24:27.185Z,96086.33
2018-05-02T16:26:53.060Z,96083.84
2018-05-02T16:29:18.954Z,96083.91
2018-05-02T16:31:44.818Z,96089.30
2018-05-02T16:34:10.765Z,96087.27
2018-05-02T16:36:36.629Z,96091.14
2018-05-02T16:39:02.559Z,96087.33
2018-05-02T16:41:28.466Z,96089.67
2018-05-02T16:43:54.340Z,96088.12
2018-05-02T16:46:20.209Z,96092.41
2018-05-02T16:48:46.072Z,96089.25
2018-05-02T16:51:11.946Z,96082.41
2018-05-02T16:53:37.805Z,96090.05
2018-05-02T16:56:03.720Z,96090.30
2018-05-02T16:58:29.664Z,96086.77
2018-05-02T17:00:55.627Z,96087.30
2018-05-02T17:03:21.491Z,96082.95
2018-05-02T17:05:47.396Z,96081.04
2018-05-02T17:08:13.269Z,96086.33
2018-05-02T17:10:39.139Z,96087.48
2018-05-02T17:13:05.013Z,96091.95
2018-05-02T17:15:30.861Z,96094.81
2018-05-02T17:17:56.744Z,96095.21
2018-05-02T17:20:24.678Z,96096.00
2018-05-02T17:22:50.779Z,96100.25
2018-05-02T17:25:17.392Z,96106.23
2018-05-02T17:27:43.319Z,96107.83
2018-05-02T17:30:09.254Z,96096.53
2018-05-02T17:32:35.116Z,96099.61
2018-05-02T17:35:01.005Z,96099.05
2018-05-02T17:37:26.872Z,96091.95
2018-05-02T17:39:52.745Z,96084.70
2018-05-02T17:42:18.629Z,96096.57
2018-05-02T17:44:44.541Z,96096.58
2018-05-02T17:47:10.378Z,96095.65
2018-05-02T17:49:36.276Z,96105.58
2018-05-02T17:52:02.138Z,96096.20
2018-05-02T17:54:28.008Z,96095.44
2018-05-02T17:56:53.870Z,96101.94
2018-05-02T17:59:19.783Z,96102.50
2018-05-02T18:01:45.668Z,96107.48
2018-05-02T18:04:11.569Z,96104.40
2018-05-02T18:06:37.428Z,96108.40
2018-05-02T18:09:03.334Z,96120.03
2018-05-02T18:11:29.176Z,96118.12
2018-05-02T18:14:02.101Z,96122.71
2018-05-02T18:16:27.978Z,96124.55
2018-05-02T18:18:53.852Z,96131.16
2018-05-02T18:21:19.769Z,96124.98
2018-05-02T18:23:45.633Z,96121.35
2018-05-02T18:26:11.479Z,96129.30
2018-05-02T18:28:37.380Z,96136.36
2018-05-02T18:31:03.281Z,96142.59
2018-05-02T18:33:29.113Z,96144.10
2018-05-02T18:35:54.968Z,96145.13
2018-05-02T18:38:20.848Z,96148.91
2018-05-02T18:40:46.700Z,96143.58
2018-05-02T18:43:12.541Z,96149.51
2018-05-02T18:45:38.408Z,96155.17
2018-05-02T18:48:10.077Z,96151.33
2018-05-02T18:50:35.972Z,96148.01
2018-05-02T18:53:01.865Z,96153.61
2018-05-02T18:55:27.714Z,96154.19
2018-05-02T18:57:53.646Z,96153.89
2018-05-02T19:00:19.832Z,96151.44
2018-05-02T19:02:47.789Z,96149.52
2018-05-02T19:05:15.448Z,96161.86
2018-05-02T19:07:42.712Z,96165.95
2018-05-02T19:10:10.042Z,96163.00
2018-05-02T19:12:37.378Z,96166.43
2018-05-02T19:15:05.383Z,96168.36
2018-05-02T19:17:34.446Z,96168.73
2018-05-02T19:20:06.673Z,96171.02
2018-05-02T19:22:32.542Z,96162.77
2018-05-02T19:25:04.542Z,96167.53
2018-05-02T19:27:30.421Z,96167.93
2018-05-02T19:29:56.341Z,96166.77
2018-05-02T19:32:28.262Z,96162.86
2018-05-02T19:34:54.226Z,96168.49
2018-05-02T19:37:20.133Z,96170.34
2018-05-02T19:39:52.186Z,96168.55
2018-05-02T19:42:24.385Z,96172.14
2018-05-02T19:44:50.286Z,96172.73
2018-05-02T19:47:16.178Z,96171.64
2018-05-02T19:49:42.072Z,96169.72
2018-05-02T19:55:16.788Z,96167.59
2018-05-02T19:57:42.622Z,96172.11
2018-05-02T20:00:14.596Z,96170.81
2018-05-02T20:02:46.457Z,96173.20
2018-05-02T20:05:12.351Z,96179.59
2018-05-02T20:07:41.089Z,96179.37
2018-05-02T20:10:13.092Z,96180.47
2018-05-02T20:12:45.077Z,96180.88
2018-05-02T20:15:10.967Z,96175.69
2018-05-02T20:17:36.928Z,96174.84
2018-05-02T20:20:02.879Z,96186.58
2018-05-02T20:22:28.724Z,96168.80
2018-05-02T20:24:54.573Z,96180.36
2018-05-02T20:27:20.431Z,96183.66
2018-05-02T20:29:46.297Z,96188.81
2018-05-02T20:32:12.144Z,96183.89
2018-05-02T20:34:38.012Z,96184.15
2018-05-02T20:37:03.944Z,96191.21
2018-05-02T20:39:29.794Z,96183.37
2018-05-02T20:41:55.696Z,96179.19
2018-05-02T20:44:21.532Z,96172.71
2018-05-02T20:46:47.366Z,96171.33
2018-05-02T20:49:13.271Z,96167.55
2018-05-02T20:51:39.144Z,96162.84
2018-05-02T20:54:04.980Z,96161.34
2018-05-02T20:56:30.826Z,96158.95
2018-05-02T20:58:56.688Z,96164.19
2018-05-02T21:01:22.565Z,96157.91
2018-05-02T21:03:48.425Z,96152.59
2018-05-02T21:06:14.249Z,96149.42
2018-05-02T21:08:40.088Z,96149.42
2018-05-02T21:11:05.937Z,96145.45
2018-05-02T21:13:31.768Z,96148.02
2018-05-02T21:15:57.635Z,96147.66
2018-05-02T21:18:23.489Z,96145.19
2018-05-02T21:20:49.316Z,96145.28
2018-05-02T21:23:15.186Z,96140.04
2018-05-02T21:25:41.045Z,96135.26
2018-05-02T21:28:06.929Z,96139.44
2018-05-02T21:30:32.791Z,96136.46
2018-05-02T21:32:58.632Z,96136.34
2018-05-02T21:35:24.468Z,96139.53
2018-05-02T21:37:50.292Z,96134.47
2018-05-02T21:40:16.144Z,96135.11
2018-05-02T21:42:42.005Z,96142.83
2018-05-02T21:45:07.858Z,96139.52
2018-05-02T21:47:33.736Z,96137.30
2018-05-02T21:49:59.592Z,96139.40
2018-05-02T21:52:25.452Z,96146.20
2018-05-02T21:54:51.301Z,96143.86
2018-05-02T21:57:17.145Z,96146.20
2018-05-02T21:59:43.068Z,96152.05
2018-05-02T22:02:08.886Z,96160.04
2018-05-02T22:04:34.762Z,96156.75
2018-05-02T22:07:00.625Z,96170.29
2018-05-02T22:09:26.453Z,96168.59
2018-05-02T22:11:52.312Z,96172.11
2018-05-02T22:14:18.153Z,96171.73
2018-05-02T22:16:44.045Z,96168.86
2018-05-02T22:19:09.903Z,96169.19
2018-05-02T22:21:35.753Z,96176.53
2018-05-02T22:24:01.588Z,96180.09
2018-05-02T22:26:27.446Z,96189.25
2018-05-02T22:28:53.287Z,96192.74
2018-05-02T22:31:19.133Z,96191.69
2018-05-02T22:33:44.986Z,96197.95
2018-05-02T22:36:10.798Z,96203.34
2018-05-02T22:38:36.640Z,96199.07
2018-05-02T22:41:02.487Z,96200.87
2018-05-02T22:43:28.554Z,96212.98
2018-05-02T22:45:54.432Z,96221.44
2018-05-02T22:48:20.284Z,96216.91
2018-05-02T22:50:46.116Z,96221.48
2018-05-02T22:53:12.005Z,96218.65
2018-05-02T22:55:37.892Z,96221.94
2018-05-02T22:58:03.760Z,96215.70
2018-05-02T23:00:29.606Z,96217.19
2018-05-02T23:02:55.472Z,96211.20
2018-05-02T23:05:21.689Z,96205.20
2018-05-02T23:07:47.594Z,96205.31
2018-05-02T23:10:13.472Z,96202.30
2018-05-02T23:12:39.325Z,96201.31
2018-05-02T23:15:05.241Z,96200.14
2018-05-02T23:17:31.131Z,96203.41
2018-05-02T23:19:56.994Z,96197.64
2018-05-02T23:22:22.837Z,96202.94
2018-05-02T23:24:48.731Z,96201.73
2018-05-02T23:27:14.573Z,96198.48
2018-05-02T23:29:40.407Z,96192.84
2018-05-02T23:32:06.253Z,96197.84
2018-05-02T23:34:32.114Z,96208.52
2018-05-02T23:36:57.974Z,96206.93
2018-05-02T23:39:23.849Z,96209.48
2018-05-02T23:41:49.673Z,96208.73
2018-05-02T23:44:15.501Z,96216.93
2018-05-02T23:46:41.362Z,96219.37
2018-05-02T23:49:07.224Z,96212.66
2018-05-02T23:51:33.096Z,96213.04
2018-05-02T23:53:58.944Z,96204.61
2018-05-02T23:56:24.778Z,96192.88
2018-05-02T23:58:50.644Z,96186.72
